sensor_id;sensor_type;location;lat;lon;timestamp;temperature;humidity
14401;DHT22;7285;50.894;5.462;2023-08-06T00:01:10;14.90;1.00
14401;DHT22;7285;50.894;5.462;2023-08-06T00:03:38;14.90;1.00
14401;DHT22;7285;50.894;5.462;2023-08-06T00:06:05;14.90;1.00
14401;DHT22;7285;50.894;5.462;2023-08-06T00:08:32;15.00;1.00
14401;DHT22;7285;50.894;5.462;2023-08-06T00:10:59;15.00;1.00
14401;DHT22;7285;50.894;5.462;2023-08-06T00:13:26;15.00;1.00
14401;DHT22;7285;50.894;5.462;2023-08-06T00:15:53;15.00;1.00
14401;DHT22;7285;50.894;5.462;2023-08-06T00:18:20;15.00;1.00
14401;DHT22;7285;50.894;5.462;2023-08-06T00:20:48;15.00;1.00
14401;DHT22;7285;50.894;5.462;2023-08-06T00:23:15;15.00;1.00
14401;DHT22;7285;50.894;5.462;2023-08-06T00:25:43;15.00;1.00
14401;DHT22;7285;50.894;5.462;2023-08-06T00:28:10;15.00;1.00
14401;DHT22;7285;50.894;5.462;2023-08-06T00:30:37;15.00;1.00
14401;DHT22;7285;50.894;5.462;2023-08-06T00:33:04;15.00;1.00
14401;DHT22;7285;50.894;5.462;2023-08-06T00:35:37;15.00;1.00
14401;DHT22;7285;50.894;5.462;2023-08-06T00:38:05;15.00;1.00
14401;DHT22;7285;50.894;5.462;2023-08-06T00:40:32;14.90;1.00
14401;DHT22;7285;50.894;5.462;2023-08-06T00:42:59;14.90;7.60
14401;DHT22;7285;50.894;5.462;2023-08-06T00:45:26;14.80;55.90
14401;DHT22;7285;50.894;5.462;2023-08-06T00:47:55;14.90;99.90
14401;DHT22;7285;50.894;5.462;2023-08-06T00:50:22;14.90;99.90
14401;DHT22;7285;50.894;5.462;2023-08-06T00:52:49;14.80;99.90
14401;DHT22;7285;50.894;5.462;2023-08-06T00:55:18;14.80;99.90
14401;DHT22;7285;50.894;5.462;2023-08-06T00:57:46;14.80;99.90
14401;DHT22;7285;50.894;5.462;2023-08-06T01:00:13;14.80;99.90
14401;DHT22;7285;50.894;5.462;2023-08-06T01:02:40;14.70;99.90
14401;DHT22;7285;50.894;5.462;2023-08-06T01:05:07;14.70;99.90
14401;DHT22;7285;50.894;5.462;2023-08-06T01:07:46;14.70;99.90
14401;DHT22;7285;50.894;5.462;2023-08-06T01:10:25;14.60;99.90
14401;DHT22;7285;50.894;5.462;2023-08-06T01:13:08;14.70;99.90
14401;DHT22;7285;50.894;5.462;2023-08-06T01:15:42;14.70;99.90
14401;DHT22;7285;50.894;5.462;2023-08-06T01:18:10;14.70;99.90
14401;DHT22;7285;50.894;5.462;2023-08-06T01:20:39;14.60;99.90
14401;DHT22;7285;50.894;5.462;2023-08-06T01:23:06;14.70;99.90
14401;DHT22;7285;50.894;5.462;2023-08-06T01:25:35;14.60;99.90
14401;DHT22;7285;50.894;5.462;2023-08-06T01:28:09;14.70;99.90
14401;DHT22;7285;50.894;5.462;2023-08-06T01:30:40;14.70;99.90
14401;DHT22;7285;50.894;5.462;2023-08-06T01:33:12;14.60;99.90
14401;DHT22;7285;50.894;5.462;2023-08-06T01:35:43;14.70;99.90
14401;DHT22;7285;50.894;5.462;2023-08-06T01:38:11;14.60;99.90
14401;DHT22;7285;50.894;5.462;2023-08-06T01:40:38;14.60;99.90
14401;DHT22;7285;50.894;5.462;2023-08-06T01:43:05;14.60;99.90
14401;DHT22;7285;50.894;5.462;2023-08-06T01:45:31;14.60;99.90
14401;DHT22;7285;50.894;5.462;2023-08-06T01:47:58;14.50;99.90
14401;DHT22;7285;50.894;5.462;2023-08-06T01:50:25;14.60;99.90
14401;DHT22;7285;50.894;5.462;2023-08-06T01:53:00;14.60;99.90
14401;DHT22;7285;50.894;5.462;2023-08-06T01:55:29;14.60;99.90
14401;DHT22;7285;50.894;5.462;2023-08-06T01:57:56;14.60;99.90
14401;DHT22;7285;50.894;5.462;2023-08-06T02:00:24;14.60;99.90
14401;DHT22;7285;50.894;5.462;2023-08-06T02:02:51;14.70;99.90
14401;DHT22;7285;50.894;5.462;2023-08-06T02:05:18;14.60;99.90
14401;DHT22;7285;50.894;5.462;2023-08-06T02:07:45;14.60;99.90
14401;DHT22;7285;50.894;5.462;2023-08-06T02:10:13;14.60;99.90
14401;DHT22;7285;50.894;5.462;2023-08-06T02:12:41;14.60;99.90
14401;DHT22;7285;50.894;5.462;2023-08-06T02:15:09;14.60;99.90
14401;DHT22;7285;50.894;5.462;2023-08-06T02:17:37;14.60;99.90
14401;DHT22;7285;50.894;5.462;2023-08-06T02:20:05;14.70;99.90
14401;DHT22;7285;50.894;5.462;2023-08-06T02:22:32;14.70;99.90
14401;DHT22;7285;50.894;5.462;2023-08-06T02:25:00;14.60;99.90
14401;DHT22;7285;50.894;5.462;2023-08-06T02:27:28;14.70;99.90
14401;DHT22;7285;50.894;5.462;2023-08-06T02:29:55;14.60;99.90
14401;DHT22;7285;50.894;5.462;2023-08-06T02:32:22;14.60;99.90
14401;DHT22;7285;50.894;5.462;2023-08-06T02:34:49;14.60;99.90
14401;DHT22;7285;50.894;5.462;2023-08-06T02:37:16;14.70;99.90
14401;DHT22;7285;50.894;5.462;2023-08-06T02:39:43;14.60;99.90
14401;DHT22;7285;50.894;5.462;2023-08-06T02:42:10;14.70;99.90
14401;DHT22;7285;50.894;5.462;2023-08-06T02:44:38;14.70;99.90
14401;DHT22;7285;50.894;5.462;2023-08-06T02:47:05;14.70;99.90
14401;DHT22;7285;50.894;5.462;2023-08-06T02:49:32;14.70;99.90
14401;DHT22;7285;50.894;5.462;2023-08-06T02:51:59;14.70;99.90
14401;DHT22;7285;50.894;5.462;2023-08-06T02:54:26;14.70;99.90
14401;DHT22;7285;50.894;5.462;2023-08-06T02:56:53;14.80;99.90
14401;DHT22;7285;50.894;5.462;2023-08-06T02:59:20;14.70;99.90
14401;DHT22;7285;50.894;5.462;2023-08-06T03:01:49;14.80;99.90
14401;DHT22;7285;50.894;5.462;2023-08-06T03:04:17;14.80;99.90
14401;DHT22;7285;50.894;5.462;2023-08-06T03:06:44;14.80;99.90
14401;DHT22;7285;50.894;5.462;2023-08-06T03:09:18;14.70;99.90
14401;DHT22;7285;50.894;5.462;2023-08-06T03:11:46;14.80;99.90
14401;DHT22;7285;50.894;5.462;2023-08-06T03:14:13;14.80;99.90
14401;DHT22;7285;50.894;5.462;2023-08-06T03:16:40;14.70;99.90
14401;DHT22;7285;50.894;5.462;2023-08-06T03:19:08;14.80;99.90
14401;DHT22;7285;50.894;5.462;2023-08-06T03:21:35;14.80;99.90
14401;DHT22;7285;50.894;5.462;2023-08-06T03:24:02;14.90;99.90
14401;DHT22;7285;50.894;5.462;2023-08-06T03:26:29;14.80;99.90
14401;DHT22;7285;50.894;5.462;2023-08-06T03:28:56;14.80;99.90
14401;DHT22;7285;50.894;5.462;2023-08-06T03:31:23;14.80;99.90
14401;DHT22;7285;50.894;5.462;2023-08-06T03:33:50;14.90;99.90
14401;DHT22;7285;50.894;5.462;2023-08-06T03:36:19;14.90;99.90
14401;DHT22;7285;50.894;5.462;2023-08-06T03:38:46;14.90;99.90
14401;DHT22;7285;50.894;5.462;2023-08-06T03:41:13;14.90;99.90
14401;DHT22;7285;50.894;5.462;2023-08-06T03:43:41;14.80;99.90
14401;DHT22;7285;50.894;5.462;2023-08-06T03:46:07;14.80;99.90
14401;DHT22;7285;50.894;5.462;2023-08-06T03:48:34;14.90;99.90
14401;DHT22;7285;50.894;5.462;2023-08-06T03:51:01;14.80;99.90
14401;DHT22;7285;50.894;5.462;2023-08-06T03:53:30;14.80;99.90
14401;DHT22;7285;50.894;5.462;2023-08-06T03:55:57;14.90;99.90
14401;DHT22;7285;50.894;5.462;2023-08-06T03:58:28;14.90;99.90
14401;DHT22;7285;50.894;5.462;2023-08-06T04:00:59;14.90;99.90
14401;DHT22;7285;50.894;5.462;2023-08-06T04:03:26;14.90;99.90
14401;DHT22;7285;50.894;5.462;2023-08-06T04:05:54;14.90;99.90
14401;DHT22;7285;50.894;5.462;2023-08-06T04:08:21;14.90;99.90
14401;DHT22;7285;50.894;5.462;2023-08-06T04:10:51;14.80;99.90
14401;DHT22;7285;50.894;5.462;2023-08-06T04:13:19;14.80;99.90
14401;DHT22;7285;50.894;5.462;2023-08-06T04:15:46;14.80;99.90
14401;DHT22;7285;50.894;5.462;2023-08-06T04:18:14;14.80;99.90
14401;DHT22;7285;50.894;5.462;2023-08-06T04:20:44;14.80;99.90
14401;DHT22;7285;50.894;5.462;2023-08-06T04:23:11;14.90;99.90
14401;DHT22;7285;50.894;5.462;2023-08-06T04:25:38;14.90;99.90
14401;DHT22;7285;50.894;5.462;2023-08-06T04:28:08;14.80;99.90
14401;DHT22;7285;50.894;5.462;2023-08-06T04:30:34;14.90;99.90
14401;DHT22;7285;50.894;5.462;2023-08-06T04:33:03;14.90;99.90
14401;DHT22;7285;50.894;5.462;2023-08-06T04:35:30;14.90;99.90
14401;DHT22;7285;50.894;5.462;2023-08-06T04:37:57;14.80;99.90
14401;DHT22;7285;50.894;5.462;2023-08-06T04:40:24;14.90;99.90
14401;DHT22;7285;50.894;5.462;2023-08-06T04:42:51;14.90;99.90
14401;DHT22;7285;50.894;5.462;2023-08-06T04:45:20;14.90;99.90
14401;DHT22;7285;50.894;5.462;2023-08-06T04:47:47;14.90;99.90
14401;DHT22;7285;50.894;5.462;2023-08-06T04:50:14;14.90;99.90
14401;DHT22;7285;50.894;5.462;2023-08-06T04:52:41;14.90;99.90
14401;DHT22;7285;50.894;5.462;2023-08-06T04:55:08;14.90;99.90
14401;DHT22;7285;50.894;5.462;2023-08-06T04:57:35;14.80;99.90
14401;DHT22;7285;50.894;5.462;2023-08-06T05:00:02;14.90;99.90
14401;DHT22;7285;50.894;5.462;2023-08-06T05:02:31;14.90;99.90
14401;DHT22;7285;50.894;5.462;2023-08-06T05:05:00;14.90;99.90
14401;DHT22;7285;50.894;5.462;2023-08-06T05:07:27;15.00;99.90
14401;DHT22;7285;50.894;5.462;2023-08-06T05:09:54;14.90;99.90
14401;DHT22;7285;50.894;5.462;2023-08-06T05:12:21;14.90;99.90
14401;DHT22;7285;50.894;5.462;2023-08-06T05:14:48;14.90;99.90
14401;DHT22;7285;50.894;5.462;2023-08-06T05:17:15;15.00;99.90
14401;DHT22;7285;50.894;5.462;2023-08-06T05:19:43;15.00;99.90
14401;DHT22;7285;50.894;5.462;2023-08-06T05:22:10;15.00;99.90
14401;DHT22;7285;50.894;5.462;2023-08-06T05:24:37;15.00;99.90
14401;DHT22;7285;50.894;5.462;2023-08-06T05:27:05;14.90;99.90
14401;DHT22;7285;50.894;5.462;2023-08-06T05:29:32;14.90;99.90
14401;DHT22;7285;50.894;5.462;2023-08-06T05:31:59;15.00;99.90
14401;DHT22;7285;50.894;5.462;2023-08-06T05:34:26;14.90;99.90
14401;DHT22;7285;50.894;5.462;2023-08-06T05:36:54;14.90;99.90
14401;DHT22;7285;50.894;5.462;2023-08-06T05:39:21;15.00;99.90
14401;DHT22;7285;50.894;5.462;2023-08-06T05:41:48;14.90;99.90
14401;DHT22;7285;50.894;5.462;2023-08-06T05:44:16;14.80;99.90
14401;DHT22;7285;50.894;5.462;2023-08-06T05:46:42;15.00;99.90
14401;DHT22;7285;50.894;5.462;2023-08-06T05:49:09;15.00;99.90
14401;DHT22;7285;50.894;5.462;2023-08-06T05:51:38;15.00;99.90
14401;DHT22;7285;50.894;5.462;2023-08-06T05:54:06;15.00;99.90
14401;DHT22;7285;50.894;5.462;2023-08-06T05:56:33;15.10;99.90
14401;DHT22;7285;50.894;5.462;2023-08-06T05:59:00;15.10;99.90
14401;DHT22;7285;50.894;5.462;2023-08-06T06:01:27;15.20;99.90
14401;DHT22;7285;50.894;5.462;2023-08-06T06:03:54;15.10;99.90
14401;DHT22;7285;50.894;5.462;2023-08-06T06:06:21;15.00;99.90
14401;DHT22;7285;50.894;5.462;2023-08-06T06:08:48;15.10;99.90
14401;DHT22;7285;50.894;5.462;2023-08-06T06:11:16;15.00;99.90
14401;DHT22;7285;50.894;5.462;2023-08-06T06:13:47;14.90;99.90
14401;DHT22;7285;50.894;5.462;2023-08-06T06:16:14;14.80;99.90
14401;DHT22;7285;50.894;5.462;2023-08-06T06:18:41;14.90;99.90
14401;DHT22;7285;50.894;5.462;2023-08-06T06:21:09;14.90;99.90
14401;DHT22;7285;50.894;5.462;2023-08-06T06:23:36;14.90;99.90
14401;DHT22;7285;50.894;5.462;2023-08-06T06:26:03;14.90;99.90
14401;DHT22;7285;50.894;5.462;2023-08-06T06:28:31;14.80;99.90
14401;DHT22;7285;50.894;5.462;2023-08-06T06:31:00;14.80;99.90
14401;DHT22;7285;50.894;5.462;2023-08-06T06:33:27;14.80;99.90
14401;DHT22;7285;50.894;5.462;2023-08-06T06:35:54;14.70;99.90
14401;DHT22;7285;50.894;5.462;2023-08-06T06:38:21;14.50;99.90
14401;DHT22;7285;50.894;5.462;2023-08-06T06:40:53;14.50;99.90
14401;DHT22;7285;50.894;5.462;2023-08-06T06:43:20;14.50;99.90
14401;DHT22;7285;50.894;5.462;2023-08-06T06:45:52;14.30;99.90
14401;DHT22;7285;50.894;5.462;2023-08-06T06:48:19;14.20;99.90
14401;DHT22;7285;50.894;5.462;2023-08-06T06:50:47;14.20;99.90
14401;DHT22;7285;50.894;5.462;2023-08-06T06:53:14;14.10;99.90
14401;DHT22;7285;50.894;5.462;2023-08-06T06:55:41;14.10;99.90
14401;DHT22;7285;50.894;5.462;2023-08-06T06:58:08;14.20;99.90
14401;DHT22;7285;50.894;5.462;2023-08-06T07:00:36;14.10;99.90
14401;DHT22;7285;50.894;5.462;2023-08-06T07:03:04;13.90;99.90
14401;DHT22;7285;50.894;5.462;2023-08-06T07:05:31;13.90;99.90
14401;DHT22;7285;50.894;5.462;2023-08-06T07:07:59;13.80;99.90
14401;DHT22;7285;50.894;5.462;2023-08-06T07:10:26;13.90;99.90
14401;DHT22;7285;50.894;5.462;2023-08-06T07:12:53;14.00;99.90
14401;DHT22;7285;50.894;5.462;2023-08-06T07:15:20;14.00;99.90
14401;DHT22;7285;50.894;5.462;2023-08-06T07:17:47;14.00;99.90
14401;DHT22;7285;50.894;5.462;2023-08-06T07:20:16;13.90;99.90
14401;DHT22;7285;50.894;5.462;2023-08-06T07:22:43;13.90;99.90
14401;DHT22;7285;50.894;5.462;2023-08-06T07:25:10;14.10;99.90
14401;DHT22;7285;50.894;5.462;2023-08-06T07:27:38;14.10;99.90
14401;DHT22;7285;50.894;5.462;2023-08-06T07:30:06;14.10;99.90
14401;DHT22;7285;50.894;5.462;2023-08-06T07:32:33;14.10;99.90
14401;DHT22;7285;50.894;5.462;2023-08-06T07:35:00;14.10;99.90
14401;DHT22;7285;50.894;5.462;2023-08-06T07:37:29;14.10;99.90
14401;DHT22;7285;50.894;5.462;2023-08-06T07:39:56;14.00;99.90
14401;DHT22;7285;50.894;5.462;2023-08-06T07:42:24;14.10;99.90
14401;DHT22;7285;50.894;5.462;2023-08-06T07:44:52;14.00;99.90
14401;DHT22;7285;50.894;5.462;2023-08-06T07:47:19;14.10;99.90
14401;DHT22;7285;50.894;5.462;2023-08-06T07:49:46;14.10;99.90
14401;DHT22;7285;50.894;5.462;2023-08-06T07:52:13;14.20;99.90
14401;DHT22;7285;50.894;5.462;2023-08-06T07:54:41;14.20;99.90
14401;DHT22;7285;50.894;5.462;2023-08-06T07:57:08;14.20;99.90
14401;DHT22;7285;50.894;5.462;2023-08-06T07:59:36;14.20;99.90
14401;DHT22;7285;50.894;5.462;2023-08-06T08:02:03;14.20;99.90
14401;DHT22;7285;50.894;5.462;2023-08-06T08:04:31;14.20;99.90
14401;DHT22;7285;50.894;5.462;2023-08-06T08:06:58;14.30;99.90
14401;DHT22;7285;50.894;5.462;2023-08-06T08:09:25;14.30;99.90
14401;DHT22;7285;50.894;5.462;2023-08-06T08:11:53;14.40;99.90
14401;DHT22;7285;50.894;5.462;2023-08-06T08:14:20;14.20;99.90
14401;DHT22;7285;50.894;5.462;2023-08-06T08:16:47;14.30;99.90
14401;DHT22;7285;50.894;5.462;2023-08-06T08:19:14;14.30;99.90
14401;DHT22;7285;50.894;5.462;2023-08-06T08:21:41;14.40;99.90
14401;DHT22;7285;50.894;5.462;2023-08-06T08:24:08;14.40;99.90
14401;DHT22;7285;50.894;5.462;2023-08-06T08:26:35;14.50;99.90
14401;DHT22;7285;50.894;5.462;2023-08-06T08:29:03;14.60;99.90
14401;DHT22;7285;50.894;5.462;2023-08-06T08:31:30;14.50;99.90
14401;DHT22;7285;50.894;5.462;2023-08-06T08:33:57;14.60;99.90
14401;DHT22;7285;50.894;5.462;2023-08-06T08:36:26;14.60;99.90
14401;DHT22;7285;50.894;5.462;2023-08-06T08:38:53;14.70;99.90
14401;DHT22;7285;50.894;5.462;2023-08-06T08:41:20;14.80;99.90
14401;DHT22;7285;50.894;5.462;2023-08-06T08:43:48;14.80;99.90
14401;DHT22;7285;50.894;5.462;2023-08-06T08:46:19;14.90;99.90
14401;DHT22;7285;50.894;5.462;2023-08-06T08:48:46;14.90;99.90
14401;DHT22;7285;50.894;5.462;2023-08-06T08:51:13;15.00;99.90
14401;DHT22;7285;50.894;5.462;2023-08-06T08:53:42;14.70;99.90
14401;DHT22;7285;50.894;5.462;2023-08-06T08:56:11;14.80;99.90
14401;DHT22;7285;50.894;5.462;2023-08-06T08:58:39;14.70;99.90
14401;DHT22;7285;50.894;5.462;2023-08-06T09:01:06;14.50;99.90
14401;DHT22;7285;50.894;5.462;2023-08-06T09:03:36;14.50;99.90
14401;DHT22;7285;50.894;5.462;2023-08-06T09:06:04;14.50;99.90
14401;DHT22;7285;50.894;5.462;2023-08-06T09:08:40;14.50;99.90
14401;DHT22;7285;50.894;5.462;2023-08-06T09:11:09;14.50;99.90
14401;DHT22;7285;50.894;5.462;2023-08-06T09:13:37;14.40;99.90
14401;DHT22;7285;50.894;5.462;2023-08-06T09:16:04;14.40;99.90
14401;DHT22;7285;50.894;5.462;2023-08-06T09:18:31;14.40;99.90
14401;DHT22;7285;50.894;5.462;2023-08-06T09:20:59;14.40;99.90
14401;DHT22;7285;50.894;5.462;2023-08-06T09:23:30;14.50;99.90
14401;DHT22;7285;50.894;5.462;2023-08-06T09:25:59;14.40;99.90
14401;DHT22;7285;50.894;5.462;2023-08-06T09:28:36;14.40;99.90
14401;DHT22;7285;50.894;5.462;2023-08-06T09:31:04;14.40;99.90
14401;DHT22;7285;50.894;5.462;2023-08-06T09:33:31;14.50;99.90
14401;DHT22;7285;50.894;5.462;2023-08-06T09:36:07;14.50;99.90
14401;DHT22;7285;50.894;5.462;2023-08-06T09:38:38;14.40;99.90
14401;DHT22;7285;50.894;5.462;2023-08-06T09:41:05;14.50;99.90
14401;DHT22;7285;50.894;5.462;2023-08-06T09:43:40;14.50;99.90
14401;DHT22;7285;50.894;5.462;2023-08-06T09:46:11;14.40;99.90
14401;DHT22;7285;50.894;5.462;2023-08-06T09:48:40;14.40;99.90
14401;DHT22;7285;50.894;5.462;2023-08-06T09:51:10;14.50;99.90
14401;DHT22;7285;50.894;5.462;2023-08-06T09:53:37;14.50;99.90
14401;DHT22;7285;50.894;5.462;2023-08-06T09:56:05;14.50;99.90
14401;DHT22;7285;50.894;5.462;2023-08-06T09:58:33;14.50;99.90
14401;DHT22;7285;50.894;5.462;2023-08-06T10:01:01;14.50;99.90
14401;DHT22;7285;50.894;5.462;2023-08-06T10:03:29;14.50;99.90
14401;DHT22;7285;50.894;5.462;2023-08-06T10:05:58;14.40;99.90
14401;DHT22;7285;50.894;5.462;2023-08-06T10:08:29;14.40;99.90
14401;DHT22;7285;50.894;5.462;2023-08-06T10:10:56;14.40;99.90
14401;DHT22;7285;50.894;5.462;2023-08-06T10:13:23;14.40;99.90
14401;DHT22;7285;50.894;5.462;2023-08-06T10:15:51;14.50;99.90
14401;DHT22;7285;50.894;5.462;2023-08-06T10:18:19;14.60;99.90
14401;DHT22;7285;50.894;5.462;2023-08-06T10:20:48;14.60;99.90
14401;DHT22;7285;50.894;5.462;2023-08-06T10:23:15;14.60;99.90
14401;DHT22;7285;50.894;5.462;2023-08-06T10:25:53;14.50;99.90
14401;DHT22;7285;50.894;5.462;2023-08-06T10:28:22;14.60;99.90
14401;DHT22;7285;50.894;5.462;2023-08-06T10:30:49;14.60;99.90
14401;DHT22;7285;50.894;5.462;2023-08-06T10:33:19;14.60;99.90
14401;DHT22;7285;50.894;5.462;2023-08-06T10:35:48;14.50;99.90
14401;DHT22;7285;50.894;5.462;2023-08-06T10:38:17;14.50;99.90
14401;DHT22;7285;50.894;5.462;2023-08-06T10:41:00;14.50;99.90
14401;DHT22;7285;50.894;5.462;2023-08-06T10:43:29;14.40;99.90
14401;DHT22;7285;50.894;5.462;2023-08-06T10:45:58;14.40;99.90
14401;DHT22;7285;50.894;5.462;2023-08-06T10:48:33;14.30;99.90
14401;DHT22;7285;50.894;5.462;2023-08-06T10:51:02;14.30;99.90
14401;DHT22;7285;50.894;5.462;2023-08-06T10:53:29;14.30;99.90
14401;DHT22;7285;50.894;5.462;2023-08-06T10:55:57;14.30;99.90
14401;DHT22;7285;50.894;5.462;2023-08-06T10:58:26;14.30;99.90
14401;DHT22;7285;50.894;5.462;2023-08-06T11:00:52;14.30;99.90
14401;DHT22;7285;50.894;5.462;2023-08-06T11:03:20;14.40;99.90
14401;DHT22;7285;50.894;5.462;2023-08-06T11:05:49;14.30;99.90
14401;DHT22;7285;50.894;5.462;2023-08-06T11:08:23;14.30;99.90
14401;DHT22;7285;50.894;5.462;2023-08-06T11:10:50;14.30;99.90
14401;DHT22;7285;50.894;5.462;2023-08-06T11:13:18;14.30;99.90
14401;DHT22;7285;50.894;5.462;2023-08-06T11:15:46;14.40;99.90
14401;DHT22;7285;50.894;5.462;2023-08-06T11:18:13;14.30;99.90
14401;DHT22;7285;50.894;5.462;2023-08-06T11:20:40;14.30;99.90
14401;DHT22;7285;50.894;5.462;2023-08-06T11:23:10;14.40;99.90
14401;DHT22;7285;50.894;5.462;2023-08-06T11:25:37;14.40;99.90
14401;DHT22;7285;50.894;5.462;2023-08-06T11:28:11;14.50;99.90
14401;DHT22;7285;50.894;5.462;2023-08-06T11:30:39;14.40;99.90
14401;DHT22;7285;50.894;5.462;2023-08-06T11:33:07;14.40;99.90
14401;DHT22;7285;50.894;5.462;2023-08-06T11:35:35;14.50;99.90
14401;DHT22;7285;50.894;5.462;2023-08-06T11:38:02;14.50;99.90
14401;DHT22;7285;50.894;5.462;2023-08-06T11:40:29;14.50;99.90
14401;DHT22;7285;50.894;5.462;2023-08-06T11:42:58;14.50;99.90
14401;DHT22;7285;50.894;5.462;2023-08-06T11:45:25;14.40;99.90
14401;DHT22;7285;50.894;5.462;2023-08-06T11:47:54;14.30;99.90
14401;DHT22;7285;50.894;5.462;2023-08-06T11:50:24;14.30;99.90
14401;DHT22;7285;50.894;5.462;2023-08-06T11:52:53;14.40;99.90
14401;DHT22;7285;50.894;5.462;2023-08-06T11:55:23;14.40;99.90
14401;DHT22;7285;50.894;5.462;2023-08-06T11:57:50;14.70;99.90
14401;DHT22;7285;50.894;5.462;2023-08-06T12:00:18;14.70;99.90
14401;DHT22;7285;50.894;5.462;2023-08-06T12:02:48;14.70;99.90
14401;DHT22;7285;50.894;5.462;2023-08-06T12:05:18;14.80;99.90
14401;DHT22;7285;50.894;5.462;2023-08-06T12:07:47;14.80;99.90
14401;DHT22;7285;50.894;5.462;2023-08-06T12:10:15;14.80;99.90
14401;DHT22;7285;50.894;5.462;2023-08-06T12:12:42;15.00;99.90
14401;DHT22;7285;50.894;5.462;2023-08-06T12:15:10;15.00;99.90
14401;DHT22;7285;50.894;5.462;2023-08-06T12:17:37;14.80;99.90
14401;DHT22;7285;50.894;5.462;2023-08-06T12:20:05;14.80;99.90
14401;DHT22;7285;50.894;5.462;2023-08-06T12:22:35;14.80;99.90
14401;DHT22;7285;50.894;5.462;2023-08-06T12:25:05;14.60;99.90
14401;DHT22;7285;50.894;5.462;2023-08-06T12:27:33;14.70;99.90
14401;DHT22;7285;50.894;5.462;2023-08-06T12:30:00;14.60;99.90
14401;DHT22;7285;50.894;5.462;2023-08-06T12:32:29;14.60;99.90
14401;DHT22;7285;50.894;5.462;2023-08-06T12:34:56;14.60;99.90
14401;DHT22;7285;50.894;5.462;2023-08-06T12:37:24;14.50;99.90
14401;DHT22;7285;50.894;5.462;2023-08-06T12:39:53;14.40;99.90
14401;DHT22;7285;50.894;5.462;2023-08-06T12:42:20;14.50;99.90
14401;DHT22;7285;50.894;5.462;2023-08-06T12:44:48;14.40;99.90
14401;DHT22;7285;50.894;5.462;2023-08-06T12:47:16;14.50;99.90
14401;DHT22;7285;50.894;5.462;2023-08-06T12:49:43;14.50;99.90
14401;DHT22;7285;50.894;5.462;2023-08-06T12:52:10;14.50;99.90
14401;DHT22;7285;50.894;5.462;2023-08-06T12:54:38;14.40;99.90
14401;DHT22;7285;50.894;5.462;2023-08-06T12:57:06;14.40;99.90
14401;DHT22;7285;50.894;5.462;2023-08-06T12:59:33;14.40;99.90
14401;DHT22;7285;50.894;5.462;2023-08-06T13:02:02;14.50;99.90
14401;DHT22;7285;50.894;5.462;2023-08-06T13:04:29;14.50;99.90
14401;DHT22;7285;50.894;5.462;2023-08-06T13:06:56;14.50;99.90
14401;DHT22;7285;50.894;5.462;2023-08-06T13:09:23;14.50;99.90
14401;DHT22;7285;50.894;5.462;2023-08-06T13:11:50;14.50;99.90
14401;DHT22;7285;50.894;5.462;2023-08-06T13:14:18;14.50;99.90
14401;DHT22;7285;50.894;5.462;2023-08-06T13:16:46;14.50;99.90
14401;DHT22;7285;50.894;5.462;2023-08-06T13:19:13;14.50;99.90
14401;DHT22;7285;50.894;5.462;2023-08-06T13:22:00;14.50;99.90
14401;DHT22;7285;50.894;5.462;2023-08-06T13:24:28;14.50;99.90
14401;DHT22;7285;50.894;5.462;2023-08-06T13:26:55;14.40;99.90
14401;DHT22;7285;50.894;5.462;2023-08-06T13:29:24;14.40;99.90
14401;DHT22;7285;50.894;5.462;2023-08-06T13:31:51;14.30;99.90
14401;DHT22;7285;50.894;5.462;2023-08-06T13:34:18;14.30;99.90
14401;DHT22;7285;50.894;5.462;2023-08-06T13:36:45;14.20;99.90
14401;DHT22;7285;50.894;5.462;2023-08-06T13:39:12;14.20;99.90
14401;DHT22;7285;50.894;5.462;2023-08-06T13:41:42;14.20;99.90
14401;DHT22;7285;50.894;5.462;2023-08-06T13:44:08;14.20;99.90
14401;DHT22;7285;50.894;5.462;2023-08-06T13:46:37;14.30;99.90
14401;DHT22;7285;50.894;5.462;2023-08-06T13:49:04;14.30;99.90
14401;DHT22;7285;50.894;5.462;2023-08-06T13:51:31;14.20;99.90
14401;DHT22;7285;50.894;5.462;2023-08-06T13:53:59;14.20;99.90
14401;DHT22;7285;50.894;5.462;2023-08-06T13:56:26;14.10;99.90
14401;DHT22;7285;50.894;5.462;2023-08-06T13:58:55;14.10;99.90
14401;DHT22;7285;50.894;5.462;2023-08-06T14:01:22;14.10;99.90
14401;DHT22;7285;50.894;5.462;2023-08-06T14:03:50;14.00;99.90
14401;DHT22;7285;50.894;5.462;2023-08-06T14:06:17;14.00;99.90
14401;DHT22;7285;50.894;5.462;2023-08-06T14:08:44;14.00;99.90
14401;DHT22;7285;50.894;5.462;2023-08-06T14:11:11;14.00;99.90
14401;DHT22;7285;50.894;5.462;2023-08-06T14:13:38;14.00;99.90
14401;DHT22;7285;50.894;5.462;2023-08-06T14:16:05;14.00;99.90
14401;DHT22;7285;50.894;5.462;2023-08-06T14:18:32;13.90;99.90
14401;DHT22;7285;50.894;5.462;2023-08-06T14:21:01;14.00;99.90
14401;DHT22;7285;50.894;5.462;2023-08-06T14:23:28;14.00;99.90
14401;DHT22;7285;50.894;5.462;2023-08-06T14:25:55;13.90;99.90
14401;DHT22;7285;50.894;5.462;2023-08-06T14:28:21;14.00;99.90
14401;DHT22;7285;50.894;5.462;2023-08-06T14:30:48;14.10;99.90
14401;DHT22;7285;50.894;5.462;2023-08-06T14:33:15;14.00;99.90
14401;DHT22;7285;50.894;5.462;2023-08-06T14:35:41;14.10;99.90
14401;DHT22;7285;50.894;5.462;2023-08-06T14:38:10;14.20;99.90
14401;DHT22;7285;50.894;5.462;2023-08-06T14:40:37;14.30;99.90
14401;DHT22;7285;50.894;5.462;2023-08-06T14:43:05;14.30;99.90
14401;DHT22;7285;50.894;5.462;2023-08-06T14:45:32;14.20;99.90
14401;DHT22;7285;50.894;5.462;2023-08-06T14:47:59;14.20;99.90
14401;DHT22;7285;50.894;5.462;2023-08-06T14:50:26;14.20;99.90
14401;DHT22;7285;50.894;5.462;2023-08-06T14:52:53;14.20;99.90
14401;DHT22;7285;50.894;5.462;2023-08-06T14:55:25;14.20;99.90
14401;DHT22;7285;50.894;5.462;2023-08-06T14:57:52;14.20;99.90
14401;DHT22;7285;50.894;5.462;2023-08-06T15:00:19;14.20;99.90
14401;DHT22;7285;50.894;5.462;2023-08-06T15:02:46;14.10;99.90
14401;DHT22;7285;50.894;5.462;2023-08-06T15:05:13;14.20;99.90
14401;DHT22;7285;50.894;5.462;2023-08-06T15:07:40;14.20;99.90
14401;DHT22;7285;50.894;5.462;2023-08-06T15:10:09;14.20;99.90
14401;DHT22;7285;50.894;5.462;2023-08-06T15:12:37;14.20;99.90
14401;DHT22;7285;50.894;5.462;2023-08-06T15:15:07;14.10;99.90
14401;DHT22;7285;50.894;5.462;2023-08-06T15:17:34;14.10;99.90
14401;DHT22;7285;50.894;5.462;2023-08-06T15:20:01;14.00;99.90
14401;DHT22;7285;50.894;5.462;2023-08-06T15:22:28;13.90;99.90
14401;DHT22;7285;50.894;5.462;2023-08-06T15:24:57;13.90;99.90
14401;DHT22;7285;50.894;5.462;2023-08-06T15:27:24;13.90;99.90
14401;DHT22;7285;50.894;5.462;2023-08-06T15:29:52;13.80;99.90
14401;DHT22;7285;50.894;5.462;2023-08-06T15:32:19;14.00;99.90
14401;DHT22;7285;50.894;5.462;2023-08-06T15:34:48;13.80;99.90
14401;DHT22;7285;50.894;5.462;2023-08-06T15:37:15;13.80;99.90
14401;DHT22;7285;50.894;5.462;2023-08-06T15:39:42;13.90;99.90
14401;DHT22;7285;50.894;5.462;2023-08-06T15:42:09;13.90;99.90
14401;DHT22;7285;50.894;5.462;2023-08-06T15:44:36;14.10;99.90
14401;DHT22;7285;50.894;5.462;2023-08-06T15:47:05;14.10;99.90
14401;DHT22;7285;50.894;5.462;2023-08-06T15:49:32;14.00;99.90
14401;DHT22;7285;50.894;5.462;2023-08-06T15:51:59;14.00;99.90